Time;durP1;ratioP1;P1;durP2;ratioP2;P2;SDS_P1;SDS_P2;PMS_P1;PMS_P2;Temp;Humidity;BMP_temperature;BMP_pressure;BME280_temperature;BME280_humidity;BME280_pressure;Samples;Min_cycle;Max_cycle;Signal;HPM_P1;HPM_P2
2022/11/17 00:01:54;;;;;;;12.43;4.28;;;7.30;99.90;;;;;;4990886;28;20030;-87
2022/11/17 00:04:20;;;;;;;11.60;4.57;;;7.30;99.90;;;;;;4969117;28;20035;-87
2022/11/17 00:06:46;;;;;;;9.55;4.50;;;7.20;99.90;;;;;;4991756;28;20481;-87
2022/11/17 00:25:17;;;;;;;8.45;4.90;;;6.90;99.90;;;;;;4984662;28;20881;-87
2022/11/17 00:27:42;;;;;;;11.77;5.35;;;6.90;99.90;;;;;;4970928;28;20057;-87
2022/11/17 00:34:03;;;;;;;8.75;5.13;;;7.00;99.90;;;;;;5004363;28;20031;-87
2022/11/17 00:35:49;;;;;;;16.63;5.28;;;6.90;99.90;;;;;;5002639;28;20038;-87
2022/11/17 00:38:15;;;;;;;13.25;5.93;;;6.90;99.90;;;;;;4989346;28;20552;-87
2022/11/17 00:40:41;;;;;;;10.80;6.20;;;6.90;99.90;;;;;;4970421;28;20022;-87
2022/11/17 00:43:06;;;;;;;10.45;5.28;;;6.90;99.90;;;;;;4972506;28;20386;-87
2022/11/17 00:45:32;;;;;;;9.48;6.40;;;6.90;99.90;;;;;;4987401;28;20061;-86
2022/11/17 00:47:58;;;;;;;11.48;5.88;;;6.90;99.90;;;;;;5003603;28;20034;-86
2022/11/17 00:50:23;;;;;;;15.38;5.47;;;6.80;99.90;;;;;;5003647;28;20026;-86
2022/11/17 00:52:49;;;;;;;12.35;5.72;;;6.80;99.90;;;;;;4969174;28;20031;-87
2022/11/17 00:55:15;;;;;;;14.02;5.00;;;6.80;99.90;;;;;;4988869;28;20030;-86
2022/11/17 00:57:41;;;;;;;13.02;6.38;;;6.80;99.90;;;;;;4970023;28;20027;-87
2022/11/17 01:00:07;;;;;;;11.05;4.95;;;6.70;99.90;;;;;;5004494;28;20032;-87
2022/11/17 01:02:33;;;;;;;14.48;5.35;;;6.70;99.90;;;;;;4988068;28;20030;-87
2022/11/17 01:04:58;;;;;;;8.85;5.38;;;6.70;99.90;;;;;;4984260;28;20039;-87
2022/11/17 01:07:24;;;;;;;10.20;5.43;;;6.70;99.90;;;;;;4989494;28;20036;-87
2022/11/17 01:09:51;;;;;;;15.35;6.53;;;6.70;99.90;;;;;;4969154;28;20560;-87
2022/11/17 01:12:16;;;;;;;11.90;5.85;;;6.70;99.90;;;;;;4989260;28;20034;-87
2022/11/17 01:14:42;;;;;;;11.48;5.82;;;6.80;99.90;;;;;;4969683;28;20496;-87
2022/11/17 01:17:08;;;;;;;13.10;5.55;;;6.80;99.90;;;;;;4988836;28;20022;-87
2022/11/17 01:19:33;;;;;;;12.35;5.47;;;6.90;99.90;;;;;;4971067;28;20026;-87
2022/11/17 01:21:59;;;;;;;9.57;6.03;;;6.90;99.90;;;;;;4967711;28;20489;-87
2022/11/17 01:24:25;;;;;;;16.48;5.90;;;6.90;99.90;;;;;;4989224;28;20065;-87
2022/11/17 01:26:50;;;;;;;21.98;6.20;;;6.90;99.90;;;;;;5000951;28;20034;-87
2022/11/17 01:29:16;;;;;;;15.07;5.80;;;6.90;99.90;;;;;;4989451;28;20022;-87
2022/11/17 01:31:43;;;;;;;10.32;5.20;;;6.90;99.90;;;;;;4969450;28;20497;-87
2022/11/17 01:34:09;;;;;;;11.57;5.72;;;6.90;99.90;;;;;;4967861;28;20105;-86
2022/11/17 01:39:23;;;;;;;18.98;6.00;;;6.90;99.90;;;;;;4985026;28;20054;-87
2022/11/17 01:41:49;;;;;;;14.23;6.85;;;6.90;99.90;;;;;;4990827;28;20038;-86
2022/11/17 01:44:40;;;;;;;11.88;6.20;;;6.90;99.90;;;;;;4967278;28;20418;-86
2022/11/17 01:47:22;;;;;;;13.00;6.25;;;6.80;99.90;;;;;;4978146;28;20034;-87
2022/11/17 01:49:50;;;;;;;9.50;5.82;;;6.90;99.90;;;;;;5001210;28;20035;-87
2022/11/17 01:52:16;;;;;;;10.98;6.53;;;6.90;99.90;;;;;;4986618;28;20029;-87
2022/11/17 01:54:45;;;;;;;11.73;6.38;;;6.90;99.90;;;;;;4969398;28;20030;-87
2022/11/17 01:57:13;;;;;;;15.80;7.13;;;6.90;99.90;;;;;;5003287;28;20050;-87
2022/11/17 01:59:44;;;;;;;10.13;6.30;;;6.90;99.90;;;;;;4986668;28;20063;-87
2022/11/17 02:02:10;;;;;;;20.13;6.82;;;6.90;99.90;;;;;;5002333;28;20470;-87
2022/11/17 02:05:02;;;;;;;16.27;6.93;;;6.90;99.90;;;;;;4985978;28;20037;-86
2022/11/17 02:07:30;;;;;;;;;;;6.90;99.90;;;;;;4986290;28;20046;-85
2022/11/17 02:09:56;;;;;;;11.63;6.25;;;6.90;99.90;;;;;;4984440;28;20000;-87
2022/11/17 02:12:24;;;;;;;13.35;6.40;;;6.90;99.90;;;;;;4969568;28;20037;-86
2022/11/17 02:14:51;;;;;;;13.10;7.28;;;6.90;99.90;;;;;;4986445;28;20089;-86
2022/11/17 02:17:18;;;;;;;11.35;6.38;;;6.90;99.90;;;;;;4970134;28;20026;-86
2022/11/17 02:19:57;;;;;;;13.35;7.90;;;6.80;99.90;;;;;;4987232;28;20022;-86
2022/11/17 02:22:29;;;;;;;15.48;6.95;;;6.80;99.90;;;;;;4970019;28;20084;-86
2022/11/17 02:24:58;;;;;;;12.75;7.35;;;6.80;99.90;;;;;;4983152;28;20031;-86
2022/11/17 02:27:51;;;;;;;12.90;7.70;;;6.90;99.90;;;;;;4998587;28;20395;-86
2022/11/17 02:30:19;;;;;;;15.35;7.93;;;6.80;99.90;;;;;;4990995;28;20123;-86
2022/11/17 02:32:48;;;;;;;13.32;7.07;;;6.80;99.90;;;;;;4984289;28;20030;-85
2022/11/17 02:35:26;;;;;;;14.10;7.43;;;6.90;99.90;;;;;;5002235;28;20041;-86
2022/11/17 02:38:19;;;;;;;12.50;7.68;;;6.90;99.90;;;;;;5001329;28;20022;-86
2022/11/17 02:40:52;;;;;;;11.00;6.90;;;6.90;99.90;;;;;;4968707;28;20046;-86
2022/11/17 02:46:20;;;;;;;10.77;6.53;;;7.00;99.90;;;;;;5003102;28;20026;-86
2022/11/17 02:48:52;;;;;;;10.40;6.32;;;7.00;99.90;;;;;;4968361;28;20062;-86
2022/11/17 02:51:23;;;;;;;13.55;5.78;;;7.00;99.90;;;;;;4983034;28;20027;-86
2022/11/17 02:53:51;;;;;;;8.38;6.63;;;7.00;99.90;;;;;;4989113;28;20034;-86
2022/11/17 02:56:17;;;;;;;15.77;6.40;;;7.00;99.90;;;;;;4966336;28;20125;-86
2022/11/17 02:58:44;;;;;;;13.23;7.15;;;7.00;99.90;;;;;;4989538;28;20418;-86
2022/11/17 03:01:34;;;;;;;16.02;6.60;;;7.00;99.90;;;;;;4998891;28;20125;-86
2022/11/17 03:04:18;;;;;;;13.23;5.72;;;7.10;99.90;;;;;;4992043;28;20054;-86
2022/11/17 03:07:02;;;;;;;18.98;6.53;;;7.10;99.90;;;;;;4983412;28;20062;-86
2022/11/17 03:10:08;;;;;;;10.93;6.05;;;7.10;99.90;;;;;;4985406;28;20041;-86
2022/11/17 03:12:53;;;;;;;12.43;6.13;;;7.10;99.90;;;;;;4984001;28;20022;-86
2022/11/17 03:15:50;;;;;;;8.73;5.97;;;7.10;99.90;;;;;;4999701;28;20092;-86
2022/11/17 03:18:29;;;;;;;9.77;6.40;;;7.10;99.90;;;;;;4971337;28;20034;-87
2022/11/17 03:21:09;;;;;;;9.27;5.65;;;7.00;99.90;;;;;;5007085;28;20505;-87
2022/11/17 03:23:48;;;;;;;9.13;5.18;;;7.00;99.90;;;;;;4969968;28;20026;-87
2022/11/17 03:26:20;;;;;;;8.75;5.75;;;7.10;99.90;;;;;;4989906;28;20034;-87
2022/11/17 03:28:46;;;;;;;9.98;5.88;;;7.10;99.90;;;;;;4989862;28;20030;-87
2022/11/17 03:31:14;;;;;;;14.05;5.40;;;7.20;99.90;;;;;;4973636;28;20041;-87
2022/11/17 03:33:43;;;;;;;10.48;5.70;;;7.20;99.90;;;;;;4989547;28;20037;-87
2022/11/17 03:36:15;;;;;;;7.72;5.20;;;7.20;99.90;;;;;;5005752;28;20038;-86
2022/11/17 03:39:07;;;;;;;8.55;5.45;;;7.20;99.90;;;;;;4972112;28;20030;-87
2022/11/17 03:41:35;;;;;;;;;;;7.20;99.90;;;;;;4987901;28;20397;-87
2022/11/17 03:44:03;;;;;;;6.53;5.15;;;7.10;99.90;;;;;;5000939;28;19917;-86
2022/11/17 03:46:30;;;;;;;13.30;6.00;;;7.10;99.90;;;;;;4993698;28;20038;-87
2022/11/17 03:49:18;;;;;;;14.35;7.97;;;7.00;99.90;;;;;;5001817;28;20029;-86
2022/11/17 03:51:44;;;;;;;11.00;6.05;;;7.00;99.90;;;;;;4982134;28;20031;-86
2022/11/17 03:54:35;;;;;;;9.48;6.22;;;7.00;99.90;;;;;;4987723;28;20058;-87
2022/11/17 03:57:12;;;;;;;13.75;6.03;;;7.00;99.90;;;;;;4985887;28;20374;-86
2022/11/17 03:59:59;;;;;;;13.77;6.05;;;7.00;99.90;;;;;;4987383;28;20031;-86
2022/11/17 04:02:26;;;;;;;13.00;6.28;;;7.00;99.90;;;;;;5004957;28;20632;-86
2022/11/17 04:05:07;;;;;;;14.20;7.05;;;7.00;99.90;;;;;;4988752;28;20489;-87
2022/11/17 04:07:44;;;;;;;11.32;6.10;;;6.90;99.90;;;;;;4972762;28;20042;-87
2022/11/17 04:10:12;;;;;;;10.48;6.72;;;7.00;99.90;;;;;;4989338;28;20031;-87
2022/11/17 04:18:06;;;;;;;9.63;6.03;;;7.00;99.90;;;;;;4998948;28;20033;-86
2022/11/17 04:20:35;;;;;;;8.38;5.07;;;7.10;99.90;;;;;;4972527;28;20026;-86
2022/11/17 04:23:10;;;;;;;11.70;4.82;;;7.10;99.90;;;;;;4988657;28;20045;-86
2022/11/17 04:28:37;;;;;;;12.45;5.35;;;7.00;99.90;;;;;;5004604;28;20029;-87
2022/11/17 04:31:06;;;;;;;10.55;5.85;;;7.00;99.90;;;;;;4988703;28;20072;-87
2022/11/17 04:33:32;;;;;;;12.70;6.32;;;7.00;99.90;;;;;;4988387;28;20177;-86
2022/11/17 04:35:58;;;;;;;11.85;6.32;;;7.00;99.90;;;;;;4970896;28;20058;-86
2022/11/17 04:38:24;;;;;;;10.70;6.18;;;7.00;99.90;;;;;;4989052;28;20030;-87
2022/11/17 04:43:33;;;;;;;12.25;6.50;;;7.00;99.90;;;;;;5005213;28;20037;-87
2022/11/17 04:46:00;;;;;;;12.55;7.10;;;7.00;99.90;;;;;;4989024;28;20026;-87
2022/11/17 04:48:26;;;;;;;15.95;6.40;;;7.00;99.90;;;;;;4989359;28;20030;-86
2022/11/17 04:50:56;;;;;;;12.88;7.53;;;7.00;99.90;;;;;;4985980;28;20058;-86
2022/11/17 04:53:23;;;;;;;18.60;7.10;;;7.00;99.90;;;;;;4990993;28;20031;-87
2022/11/17 04:55:49;;;;;;;15.50;7.70;;;7.00;99.90;;;;;;4985997;28;20110;-86
2022/11/17 04:58:15;;;;;;;12.70;6.95;;;7.00;99.90;;;;;;4989656;28;20398;-87
2022/11/17 05:00:41;;;;;;;11.93;8.20;;;7.10;99.90;;;;;;4987692;28;20029;-87
2022/11/17 05:03:07;;;;;;;10.68;7.13;;;7.00;99.90;;;;;;4989218;28;20030;-87
2022/11/17 05:05:32;;;;;;;12.98;7.45;;;7.00;99.90;;;;;;5003644;28;20036;-87
2022/11/17 05:07:58;;;;;;;12.57;8.05;;;7.00;99.90;;;;;;4968303;28;20114;-87
2022/11/17 05:13:20;;;;;;;13.25;8.02;;;6.90;99.90;;;;;;5000226;28;20026;-87
2022/11/17 05:18:42;;;;;;;14.80;9.02;;;7.00;99.90;;;;;;4996728;28;20034;-87
2022/11/17 05:21:09;;;;;;;14.73;9.88;;;6.90;99.90;;;;;;4988692;28;20027;-87
2022/11/17 05:23:54;;;;;;;17.67;9.80;;;7.00;99.90;;;;;;4984403;28;20086;-86
2022/11/17 05:30:08;;;;;;;24.83;12.80;;;6.90;99.90;;;;;;4970791;28;20034;-86
2022/11/17 05:32:33;;;;;;;23.13;12.02;;;6.90;99.90;;;;;;4959349;28;20063;-86
2022/11/17 05:35:33;;;;;;;17.65;11.68;;;6.80;99.90;;;;;;4986741;28;20437;-86
2022/11/17 05:37:59;;;;;;;22.05;13.40;;;6.80;99.90;;;;;;4986832;28;20034;-86
2022/11/17 05:40:24;;;;;;;23.30;13.77;;;6.80;99.90;;;;;;4986275;28;20037;-86
2022/11/17 05:42:50;;;;;;;25.98;15.45;;;6.90;99.90;;;;;;4989182;28;20027;-86
2022/11/17 05:45:16;;;;;;;25.33;14.43;;;6.80;99.90;;;;;;4986716;28;20029;-86
2022/11/17 05:47:41;;;;;;;27.10;13.50;;;6.80;99.90;;;;;;5002692;28;20023;-87
2022/11/17 05:50:07;;;;;;;25.85;13.65;;;6.80;99.90;;;;;;4986632;28;20086;-87
2022/11/17 05:52:33;;;;;;;24.88;14.57;;;6.80;99.90;;;;;;4984216;28;20161;-86
2022/11/17 05:54:58;;;;;;;33.00;19.35;;;6.80;99.90;;;;;;4986615;28;20366;-87
2022/11/17 05:57:28;;;;;;;32.30;17.23;;;6.80;99.90;;;;;;4986380;28;20080;-87
2022/11/17 06:00:03;;;;;;;25.60;16.25;;;6.80;99.90;;;;;;5001753;28;20034;-87
2022/11/17 06:02:46;;;;;;;30.02;17.95;;;6.80;99.90;;;;;;4979631;28;20034;-86
2022/11/17 06:05:11;;;;;;;33.03;17.90;;;6.80;99.90;;;;;;4985946;28;20518;-86
2022/11/17 06:07:37;;;;;;;32.75;19.70;;;6.80;99.90;;;;;;4985000;28;20038;-86
2022/11/17 06:10:51;;;;;;;34.42;19.33;;;6.80;99.90;;;;;;4985093;28;20112;-86
2022/11/17 06:13:18;;;;;;;38.40;20.05;;;6.80;99.90;;;;;;4997515;28;20035;-86
2022/11/17 06:15:44;;;;;;;38.10;21.70;;;6.70;99.90;;;;;;4989818;28;20143;-87
2022/11/17 06:18:16;;;;;;;36.92;21.38;;;6.80;99.90;;;;;;4983361;28;20085;-87
2022/11/17 06:20:47;;;;;;;;;;;6.80;99.90;;;;;;4990919;28;20398;-86
2022/11/17 06:23:16;;;;;;;41.90;20.33;;;6.80;99.90;;;;;;4982249;28;19918;-86
2022/11/17 06:26:08;;;;;;;49.92;22.58;;;6.80;99.90;;;;;;4983442;28;20026;-86
2022/11/17 06:28:35;;;;;;;44.65;22.48;;;6.80;99.90;;;;;;5001209;28;20022;-86
2022/11/17 06:31:01;;;;;;;42.92;22.65;;;6.70;99.90;;;;;;4969131;28;20092;-86
2022/11/17 06:33:29;;;;;;;41.30;22.30;;;6.80;99.90;;;;;;4985612;28;20378;-87
2022/11/17 06:35:57;;;;;;;38.83;18.95;;;6.80;99.90;;;;;;4983384;28;20029;-86
2022/11/17 06:38:23;;;;;;;30.45;17.52;;;7.00;99.90;;;;;;4963385;28;20170;-86
2022/11/17 06:40:50;;;;;;;41.83;18.88;;;7.00;99.90;;;;;;4967608;28;20792;-88
2022/11/17 06:43:16;;;;;;;37.85;19.55;;;7.10;99.90;;;;;;4974708;28;20042;-88
2022/11/17 06:45:46;;;;;;;34.70;21.08;;;7.10;99.90;;;;;;4969451;28;20030;-87
2022/11/17 06:48:15;;;;;;;34.47;20.20;;;7.10;99.90;;;;;;4968708;28;20030;-89
2022/11/17 06:50:41;;;;;;;33.13;17.88;;;7.10;99.90;;;;;;4983515;28;20441;-89
2022/11/17 06:53:09;;;;;;;40.05;19.88;;;7.10;99.90;;;;;;4969003;28;20027;-88
2022/11/17 06:55:35;;;;;;;34.33;18.60;;;7.10;99.90;;;;;;4983537;28;20470;-88
2022/11/17 06:58:05;;;;;;;32.95;18.30;;;7.10;99.90;;;;;;4988350;28;20027;-87
2022/11/17 07:00:32;;;;;;;32.83;17.77;;;7.20;99.90;;;;;;4989849;28;20042;-89
2022/11/17 07:03:16;;;;;;;34.67;17.92;;;7.10;99.90;;;;;;4977155;28;20026;-88
2022/11/17 07:05:41;;;;;;;35.30;17.55;;;7.20;99.90;;;;;;4977282;28;20085;-88
2022/11/17 07:08:07;;;;;;;37.58;18.88;;;7.20;99.90;;;;;;4993831;28;20030;-88
2022/11/17 07:10:34;;;;;;;31.08;19.60;;;7.20;99.90;;;;;;4985445;28;20030;-88
2022/11/17 07:13:00;;;;;;;36.50;19.40;;;7.30;99.90;;;;;;4975623;28;20119;-88
2022/11/17 07:15:26;;;;;;;37.55;18.35;;;7.20;99.90;;;;;;4977614;28;20486;-88
2022/11/17 07:17:52;;;;;;;31.38;17.17;;;7.10;99.90;;;;;;4975521;28;20099;-88
2022/11/17 07:20:18;;;;;;;33.17;15.60;;;7.00;99.90;;;;;;4961904;28;20074;-87
2022/11/17 07:22:44;;;;;;;30.00;15.57;;;7.00;99.90;;;;;;4983667;28;20035;-88
2022/11/17 07:29:51;;;;;;;24.48;14.30;;;7.20;99.90;;;;;;4965766;28;20037;-87
2022/11/17 07:32:16;;;;;;;28.23;14.88;;;7.30;99.90;;;;;;4977179;28;20034;-87
2022/11/17 07:34:42;;;;;;;28.42;14.80;;;7.40;99.90;;;;;;4966070;28;20035;-89
2022/11/17 07:37:08;;;;;;;34.67;16.15;;;7.40;99.90;;;;;;4972074;28;20286;-87
2022/11/17 07:39:33;;;;;;;30.40;15.57;;;7.40;99.90;;;;;;4962162;28;20034;-87
2022/11/17 07:41:59;;;;;;;28.23;14.48;;;7.40;99.90;;;;;;4975968;28;20062;-87
2022/11/17 07:44:25;;;;;;;24.45;13.90;;;7.40;99.90;;;;;;4972560;28;20086;-87
2022/11/17 07:46:51;;;;;;;29.85;14.75;;;7.40;99.90;;;;;;4976641;28;20471;-88
2022/11/17 07:49:17;;;;;;;34.60;15.35;;;7.40;99.90;;;;;;4970728;28;20050;-88
2022/11/17 07:51:42;;;;;;;48.58;24.58;;;7.40;99.90;;;;;;4975767;28;20101;-87
2022/11/17 07:54:08;;;;;;;55.20;25.70;;;7.40;99.90;;;;;;4976067;28;20158;-87
2022/11/17 07:56:34;;;;;;;45.72;22.17;;;7.50;99.90;;;;;;4956300;28;20093;-87
2022/11/17 07:58:59;;;;;;;55.13;23.52;;;7.60;99.90;;;;;;4986880;28;20066;-87
2022/11/17 08:01:28;;;;;;;54.92;28.45;;;7.60;99.90;;;;;;4959741;28;20069;-87
2022/11/17 08:03:54;;;;;;;48.53;25.08;;;7.60;99.90;;;;;;4975371;28;20041;-88
2022/11/17 08:06:28;;;;;;;39.75;23.35;;;7.50;99.90;;;;;;4985556;28;20386;-88
2022/11/17 08:09:15;;;;;;;28.35;16.63;;;7.50;99.90;;;;;;4974333;28;20037;-87
2022/11/17 08:11:40;;;;;;;28.67;16.15;;;7.50;99.90;;;;;;4990626;28;20042;-87
2022/11/17 08:14:06;;;;;;;40.80;23.50;;;7.50;99.90;;;;;;4975200;28;20030;-87
2022/11/17 08:16:32;;;;;;;41.53;23.02;;;7.60;99.90;;;;;;4975172;28;20402;-87
2022/11/17 08:18:58;;;;;;;36.47;19.98;;;7.60;99.90;;;;;;4976158;28;20019;-88
2022/11/17 08:21:24;;;;;;;32.30;18.38;;;7.60;99.90;;;;;;4975179;28;20039;-87
2022/11/17 08:23:51;;;;;;;34.70;17.55;;;7.50;99.90;;;;;;4961661;28;20023;-88
2022/11/17 08:26:19;;;;;;;32.60;17.70;;;7.60;99.90;;;;;;4986636;28;20038;-87
2022/11/17 08:28:46;;;;;;;30.45;17.23;;;7.60;99.90;;;;;;4986457;28;20031;-87
2022/11/17 08:31:12;;;;;;;31.33;17.73;;;7.70;99.90;;;;;;5002689;28;20497;-88
2022/11/17 08:33:37;;;;;;;31.67;15.82;;;7.70;99.90;;;;;;4984577;28;20023;-88
2022/11/17 08:36:05;;;;;;;30.58;15.23;;;7.70;99.90;;;;;;4986527;28;20022;-88
2022/11/17 08:38:32;;;;;;;27.23;13.55;;;7.90;99.90;;;;;;4984200;28;20026;-88
2022/11/17 08:41:04;;;;;;;27.17;13.32;;;8.00;99.90;;;;;;4979500;28;20030;-88
2022/11/17 08:43:29;;;;;;;;;;;8.10;99.90;;;;;;4985439;28;20118;-88
2022/11/17 08:45:55;;;;;;;26.67;12.57;;;8.20;99.90;;;;;;4986164;28;20007;-88
2022/11/17 08:48:28;;;;;;;19.10;10.45;;;8.50;99.90;;;;;;4985646;28;20734;-87
2022/11/17 08:50:57;;;;;;;17.58;8.90;;;8.60;99.90;;;;;;5017905;28;20117;-87
2022/11/17 08:53:23;;;;;;;20.67;8.10;;;8.90;99.90;;;;;;5003007;28;20146;-88
2022/11/17 08:55:49;;;;;;;13.55;6.63;;;9.10;99.90;;;;;;5000369;28;20130;-88
2022/11/17 08:58:15;;;;;;;12.93;7.47;;;9.30;99.90;;;;;;4972247;28;20030;-88
2022/11/17 09:00:41;;;;;;;11.45;4.35;;;9.30;99.90;;;;;;4969890;28;20113;-88
2022/11/17 09:03:08;;;;;;;13.65;5.75;;;9.30;99.90;;;;;;4970818;28;20033;-88
2022/11/17 09:09:21;;;;;;;16.42;5.95;;;9.30;99.90;;;;;;4984231;28;20049;-89
2022/11/17 09:11:46;;;;;;;9.95;4.30;;;9.40;99.90;;;;;;4984564;28;20425;-88
2022/11/17 09:14:12;;;;;;;11.07;3.83;;;9.30;99.90;;;;;;4970319;28;20487;-88
2022/11/17 09:16:38;;;;;;;10.75;3.10;;;9.10;99.90;;;;;;4983507;28;20034;-88
2022/11/17 09:19:04;;;;;;;12.13;3.63;;;9.10;99.90;;;;;;4972283;28;20790;-88
2022/11/17 09:21:31;;;;;;;14.88;3.17;;;9.00;99.90;;;;;;4978837;28;20418;-88
2022/11/17 09:23:57;;;;;;;6.55;2.85;;;8.90;99.90;;;;;;4985408;28;20038;-88
2022/11/17 09:26:23;;;;;;;9.18;2.92;;;8.80;99.90;;;;;;4986536;28;20042;-89
2022/11/17 09:28:48;;;;;;;6.32;3.05;;;8.80;99.90;;;;;;4986469;28;20030;-88
2022/11/17 09:31:17;;;;;;;11.52;3.17;;;8.80;99.90;;;;;;5003448;28;20092;-89
2022/11/17 09:33:43;;;;;;;9.52;2.88;;;8.80;99.90;;;;;;4968866;28;20497;-89
2022/11/17 09:36:11;;;;;;;11.45;3.20;;;8.80;99.90;;;;;;4986803;28;20030;-88
2022/11/17 09:38:37;;;;;;;8.45;3.92;;;8.80;99.90;;;;;;4969412;28;20034;-89
2022/11/17 09:41:14;;;;;;;7.90;3.20;;;8.90;99.90;;;;;;4969859;28;20069;-89
2022/11/17 09:44:00;;;;;;;8.82;2.50;;;8.90;99.90;;;;;;5018717;28;20066;-89
2022/11/17 09:46:50;;;;;;;7.40;3.05;;;9.00;99.90;;;;;;4969695;28;20061;-88
2022/11/17 09:49:44;;;;;;;14.65;5.47;;;9.00;99.90;;;;;;4995260;28;20034;-88
2022/11/17 09:52:42;;;;;;;6.70;2.92;;;9.00;99.90;;;;;;4991888;28;20093;-89
2022/11/17 09:55:35;;;;;;;9.80;2.50;;;8.90;99.90;;;;;;4966578;28;20049;-89
2022/11/17 09:58:09;;;;;;;;;;;9.10;99.90;;;;;;4985520;28;20022;-89
2022/11/17 10:00:37;;;;;;;9.07;3.05;;;9.30;99.90;;;;;;5001715;28;19914;-89
2022/11/17 10:03:15;;;;;;;11.45;3.13;;;9.40;99.90;;;;;;4970363;28;20018;-89
2022/11/17 10:05:41;;;;;;;16.08;3.15;;;9.40;99.90;;;;;;4984536;28;20073;-89
2022/11/17 10:08:14;;;;;;;14.35;3.50;;;9.40;99.90;;;;;;4966253;28;20071;-89
2022/11/17 10:10:48;;;;;;;12.02;3.08;;;9.40;99.90;;;;;;5006358;28;20513;-89
2022/11/17 10:13:25;;;;;;;12.07;2.30;;;9.30;99.90;;;;;;4966338;28;20041;-88
2022/11/17 10:15:57;;;;;;;18.90;5.38;;;9.20;99.90;;;;;;4985198;28;20053;-89
2022/11/17 10:18:22;;;;;;;35.17;10.88;;;9.10;99.90;;;;;;4969194;28;20609;-88
2022/11/17 10:20:49;;;;;;;17.63;4.75;;;8.90;99.90;;;;;;4984051;28;20114;-86
2022/11/17 10:23:18;;;;;;;16.50;4.22;;;8.80;99.90;;;;;;4986762;28;20130;-88
2022/11/17 10:25:55;;;;;;;9.02;2.65;;;8.70;99.90;;;;;;4983608;28;20031;-88
2022/11/17 10:28:30;;;;;;;13.13;2.80;;;8.50;99.90;;;;;;4985484;28;20081;-88
2022/11/17 10:31:02;;;;;;;15.38;2.65;;;8.40;99.90;;;;;;4968712;28;20042;-87
2022/11/17 10:33:49;;;;;;;7.35;1.70;;;8.30;99.90;;;;;;4972567;28;20082;-89
2022/11/17 10:36:21;;;;;;;13.52;1.80;;;8.30;99.90;;;;;;5001447;28;20030;-90
2022/11/17 10:38:50;;;;;;;6.63;1.98;;;8.20;99.90;;;;;;4987294;28;20031;-88
2022/11/17 10:41:27;;;;;;;15.82;4.00;;;8.20;99.90;;;;;;4990433;28;20030;-87
2022/11/17 10:44:01;;;;;;;11.68;2.72;;;8.10;99.90;;;;;;4969953;28;20767;-86
2022/11/17 10:46:27;;;;;;;11.35;2.20;;;8.10;99.90;;;;;;4993182;28;20034;-86
2022/11/17 10:48:59;;;;;;;14.63;3.97;;;8.00;99.90;;;;;;4975629;28;20031;-86
2022/11/17 10:51:26;;;;;;;8.98;2.13;;;7.90;99.90;;;;;;4968602;28;20027;-87
2022/11/17 10:54:14;;;;;;;5.95;0.88;;;7.80;99.90;;;;;;4977436;28;20089;-88
2022/11/17 10:56:46;;;;;;;3.05;1.20;;;7.50;99.90;;;;;;4977458;28;20034;-89
2022/11/17 10:59:19;;;;;;;5.28;1.13;;;7.50;99.90;;;;;;4960931;28;20066;-89
2022/11/17 11:01:49;;;;;;;5.32;1.35;;;7.40;99.90;;;;;;4959417;28;20027;-88
2022/11/17 11:04:34;;;;;;;7.38;2.58;;;7.40;99.90;;;;;;4982949;28;20041;-89
2022/11/17 11:07:20;;;;;;;10.35;1.60;;;7.40;99.90;;;;;;4989764;28;20121;-86
2022/11/17 11:09:55;;;;;;;25.70;7.22;;;7.40;99.90;;;;;;4994273;28;20027;-87
2022/11/17 11:13:12;;;;;;;23.95;3.17;;;7.40;99.90;;;;;;5016972;28;20066;-86
2022/11/17 11:15:38;;;;;;;15.10;2.90;;;7.40;99.90;;;;;;4984646;28;20042;-89
2022/11/17 11:18:13;;;;;;;9.40;2.42;;;7.50;99.90;;;;;;4981777;28;20023;-87
2022/11/17 11:20:58;;;;;;;5.93;2.30;;;7.60;99.90;;;;;;4961918;28;20027;-87
2022/11/17 11:23:52;;;;;;;5.22;2.08;;;7.80;99.90;;;;;;4987006;28;20027;-90
2022/11/17 11:26:31;;;;;;;9.80;2.45;;;7.90;99.90;;;;;;4983270;28;20023;-87
2022/11/17 11:29:21;;;;;;;9.63;3.67;;;8.20;99.90;;;;;;4975543;28;20026;-86
2022/11/17 11:31:53;;;;;;;6.45;2.25;;;8.40;99.90;;;;;;4979691;28;20050;-87
2022/11/17 11:34:45;;;;;;;10.15;3.45;;;8.50;99.90;;;;;;4975062;28;20039;-86
2022/11/17 11:37:13;;;;;;;8.70;4.32;;;8.70;99.90;;;;;;4975501;28;20031;-87
2022/11/17 11:39:56;;;;;;;8.48;2.08;;;8.90;99.90;;;;;;4962062;28;20039;-87
2022/11/17 11:42:43;;;;;;;12.35;2.75;;;9.00;99.90;;;;;;4970751;28;20042;-87
2022/11/17 11:45:36;;;;;;;12.93;3.10;;;9.10;99.90;;;;;;4975845;28;20034;-86
2022/11/17 11:48:13;;;;;;;13.73;4.07;;;9.00;99.90;;;;;;4982194;28;20026;-87
2022/11/17 11:50:53;;;;;;;11.23;3.65;;;9.20;99.90;;;;;;4962475;28;20034;-87
2022/11/17 11:53:40;;;;;;;15.00;3.88;;;9.50;99.90;;;;;;4981721;28;20027;-88
2022/11/17 11:56:32;;;;;;;15.63;2.75;;;9.50;99.90;;;;;;4972984;28;20031;-87
2022/11/17 11:59:13;;;;;;;;;;;9.70;99.90;;;;;;4991601;28;20030;-89
2022/11/17 12:02:10;;;;;;;11.70;2.92;;;9.70;99.90;;;;;;5000561;28;19914;-87
2022/11/17 12:05:15;;;;;;;10.82;3.65;;;9.80;99.90;;;;;;4984864;28;20583;-86
2022/11/17 12:08:05;;;;;;;13.45;2.53;;;9.90;99.90;;;;;;4952396;28;20049;-87
2022/11/17 12:10:56;;;;;;;8.25;2.30;;;9.90;99.90;;;;;;5002012;28;20097;-87
2022/11/17 12:13:23;;;;;;;8.90;2.40;;;9.90;99.90;;;;;;4977871;28;20390;-87
2022/11/17 12:15:49;;;;;;;11.15;2.63;;;9.90;99.90;;;;;;4987402;28;20290;-87
2022/11/17 12:18:18;;;;;;;11.63;2.28;;;9.80;99.90;;;;;;4974316;28;20037;-89
2022/11/17 12:20:54;;;;;;;17.42;2.67;;;9.80;99.90;;;;;;4992516;28;20121;-89
2022/11/17 12:23:45;;;;;;;10.48;2.30;;;9.70;99.90;;;;;;4970860;28;20680;-87
2022/11/17 12:26:24;;;;;;;15.75;3.05;;;9.70;99.90;;;;;;4977241;28;20038;-87
2022/11/17 12:29:26;;;;;;;14.75;3.17;;;10.00;99.90;;;;;;4959614;28;20122;-88
2022/11/17 12:31:59;;;;;;;12.25;2.88;;;10.20;99.90;;;;;;4994087;28;20039;-90
2022/11/17 12:35:09;;;;;;;10.88;2.95;;;10.10;99.90;;;;;;4958116;28;20117;-89
2022/11/17 12:37:35;;;;;;;7.43;2.65;;;10.10;99.90;;;;;;4985062;28;20126;-89
2022/11/17 12:40:04;;;;;;;18.25;4.03;;;9.90;99.90;;;;;;4973130;28;20154;-89
2022/11/17 12:42:34;;;;;;;14.40;2.90;;;9.70;99.90;;;;;;4973466;28;20073;-87
2022/11/17 12:45:05;;;;;;;8.38;2.10;;;9.60;99.90;;;;;;4973681;28;20121;-87
2022/11/17 12:48:14;;;;;;;23.05;5.38;;;9.70;99.90;;;;;;4967159;28;20030;-87
2022/11/17 12:50:50;;;;;;;10.10;3.35;;;9.90;99.90;;;;;;4970709;28;20027;-87
2022/11/17 12:53:53;;;;;;;18.35;3.20;;;10.00;99.90;;;;;;4976223;28;20034;-89
2022/11/17 12:56:27;;;;;;;9.60;2.92;;;10.00;99.90;;;;;;4974550;28;20125;-89
2022/11/17 12:59:21;;;;;;;10.70;2.67;;;10.00;99.90;;;;;;4994599;28;20027;-89
2022/11/17 13:01:50;;;;;;;13.57;3.63;;;10.00;99.90;;;;;;4987065;28;20034;-88
2022/11/17 13:04:19;;;;;;;17.13;4.35;;;9.90;99.90;;;;;;4998186;28;20449;-87
2022/11/17 13:07:06;;;;;;;15.82;4.72;;;9.80;99.90;;;;;;4976398;28;20037;-87
2022/11/17 13:09:34;;;;;;;11.60;2.30;;;9.70;99.90;;;;;;4969171;28;20041;-89
2022/11/17 13:12:05;;;;;;;18.17;3.97;;;9.60;99.90;;;;;;4959015;28;20033;-89
2022/11/17 13:14:35;;;;;;;14.02;3.72;;;9.50;99.90;;;;;;4957622;28;20086;-87
2022/11/17 13:17:02;;;;;;;18.13;3.85;;;9.40;99.90;;;;;;4986066;28;20031;-89
2022/11/17 13:19:39;;;;;;;20.27;4.13;;;9.50;99.90;;;;;;4986182;28;20418;-87
2022/11/17 13:22:10;;;;;;;19.02;4.95;;;9.50;99.90;;;;;;4973974;28;20123;-87
2022/11/17 13:24:38;;;;;;;39.25;11.77;;;9.40;99.90;;;;;;4988280;28;20378;-87
2022/11/17 13:27:16;;;;;;;23.20;9.40;;;9.30;99.90;;;;;;4973230;28;20023;-87
2022/11/17 13:29:42;;;;;;;30.40;8.30;;;9.20;99.90;;;;;;4990635;28;20072;-87
2022/11/17 13:32:16;;;;;;;14.75;2.85;;;9.20;99.90;;;;;;4969416;28;20051;-88
2022/11/17 13:34:47;;;;;;;10.80;3.67;;;9.10;99.90;;;;;;5008838;28;20069;-88
2022/11/17 13:37:23;;;;;;;15.85;3.80;;;9.00;99.90;;;;;;4991854;28;20573;-87
2022/11/17 13:40:18;;;;;;;16.27;3.30;;;9.00;99.90;;;;;;4972232;28;20041;-87
2022/11/17 13:42:45;;;;;;;15.18;3.17;;;9.00;99.90;;;;;;4973448;28;20041;-88
2022/11/17 13:45:13;;;;;;;11.30;2.83;;;8.90;99.90;;;;;;4965790;28;20041;-88
2022/11/17 13:47:44;;;;;;;18.40;3.50;;;8.90;99.90;;;;;;4972387;28;20041;-88
2022/11/17 13:50:39;;;;;;;15.65;3.00;;;8.80;99.90;;;;;;4980380;28;20042;-87
2022/11/17 13:53:18;;;;;;;13.00;2.95;;;8.60;99.90;;;;;;4961627;28;20495;-87
2022/11/17 13:55:47;;;;;;;16.90;3.15;;;8.60;99.90;;;;;;4979467;28;20114;-88
2022/11/17 13:58:25;;;;;;;16.38;3.65;;;8.60;99.90;;;;;;4957563;28;20031;-89
2022/11/17 14:00:56;;;;;;;15.43;5.10;;;8.70;99.90;;;;;;4957845;28;20027;-88
2022/11/17 14:03:36;;;;;;;8.70;2.00;;;8.70;99.90;;;;;;4977054;28;20034;-88
2022/11/17 14:06:10;;;;;;;8.43;2.92;;;8.50;99.90;;;;;;4958419;28;20117;-88
2022/11/17 14:08:37;;;;;;;6.45;1.73;;;8.50;99.90;;;;;;4986872;28;20022;-88
2022/11/17 14:11:24;;;;;;;10.32;2.58;;;8.50;99.90;;;;;;4971812;28;20085;-88